Cape Sakura — 7JHZ — position and weather

sailwx.info

Track history (hours):
 
Tides and Currents Weather Stations Pressure Air Temp Water Temp Dewpoint Dewpoint Depression Visibility Wind Speed Wind Dir Waves Ship Positions

Cape Sakura

Last reported at 2014-Sep-17 15:13 UTC. Time now 2014-Sep-30 10:21 UTC.
Position S 26°51' E 154°04'.
Warning: this ship's position is 12 days out of date.

Length 292 m; draft 15.3 m.

Type: Cargo ship. MMSI: 432786000.

Date/timePositionNaut miles runAvg speedWind from/ knotsBaromVisibWave heightAir tempDewpointWater temp
2014-Sep-17 15:13S 26°51' E 154°04'812.1
2014-Sep-17 14:33S 26°59' E 154°04'1212.2
2014-Sep-17 13:33S 27°11' E 154°03'1211.8
2014-Sep-17 12:33S 27°23' E 154°03'1111.4
2014-Sep-17 11:33S 27°34' E 154°04'1110.9
2014-Sep-17 10:33S 27°45' E 154°04'1010.2
2014-Sep-17 09:33S 27°55' E 154°04'1010.0
2014-Sep-17 08:33S 28°05' E 154°04'10 9.8
2014-Sep-17 07:33S 28°15' E 154°04'25811.7
2014-Sep-16 09:33S 32°24' E 152°47'1111.1
2014-Sep-16 08:33S 32°34' E 152°40'1111.0
2014-Sep-16 07:33S 32°40' E 152°30'1110.7
2014-Sep-16 06:33S 32°47' E 152°19'1110.8
2014-Sep-16 05:33S 32°52' E 152°08'1111.3
2014-Sep-16 04:33S 32°56' E 151°56'7 7.0
2014-Sep-16 03:33S 32°55' E 151°47'3 3.0
2014-Sep-16 02:33S 32°53' E 151°45'0 0.0
2014-Sep-16 01:28S 32°53' E 151°45'0 0.0
2014-Sep-16 00:31S 32°53' E 151°45'0 0.0
2014-Sep-15 23:28S 32°53' E 151°45'0 0.0
2014-Sep-15 22:22S 32°53' E 151°45'0 0.0
2014-Sep-15 21:22S 32°53' E 151°45'0 0.0
2014-Sep-15 20:22S 32°53' E 151°45'0 0.0
2014-Sep-15 19:31S 32°53' E 151°45'0 0.0
2014-Sep-15 18:31S 32°53' E 151°45'0 0.0
2014-Sep-15 17:28S 32°53' E 151°45'0 0.0
2014-Sep-15 16:31S 32°53' E 151°45'0 0.0
2014-Sep-15 15:31S 32°53' E 151°45'0 0.0
2014-Sep-15 14:31S 32°53' E 151°45'0 0.0
2014-Sep-15 13:16S 32°53' E 151°45'0 0.0
2014-Sep-15 12:31S 32°53' E 151°45'0 0.0
2014-Sep-15 11:31S 32°53' E 151°45'0 0.0
2014-Sep-15 10:28S 32°53' E 151°45'0 0.0
2014-Sep-15 09:31S 32°53' E 151°45'0 0.0
2014-Sep-15 08:31S 32°53' E 151°45'0 0.0
2014-Sep-15 07:28S 32°53' E 151°45'0 0.0
2014-Sep-15 06:28S 32°53' E 151°45'0 0.0
2014-Sep-15 05:28S 32°53' E 151°45'0 0.0
2014-Sep-15 04:31S 32°53' E 151°45'0 0.0
2014-Sep-15 03:28S 32°53' E 151°45'0 0.0
2014-Sep-15 02:25S 32°53' E 151°45'0 0.0
2014-Sep-15 01:31S 32°53' E 151°45'0 0.0
2014-Sep-15 00:31S 32°53' E 151°45'0 0.0
2014-Sep-14 23:28S 32°53' E 151°45'0 0.0
2014-Sep-14 22:31S 32°53' E 151°45'0 0.0
2014-Sep-14 21:28S 32°53' E 151°45'1 1.0
2014-Sep-14 20:33S 32°53' E 151°46'4 3.9
2014-Sep-14 19:33S 32°55' E 151°50'9 9.3
2014-Sep-14 18:33S 33°05' E 151°51'12 1.4
2014-Sep-14 09:30S 33°13' E 151°41'0 0.0
2014-Sep-14 07:33S 33°13' E 151°41'0 0.0
2014-Sep-14 06:33S 33°13' E 151°41'0 0.0
2014-Sep-14 05:30S 33°13' E 151°41'4 0.3
2014-Sep-13 15:21S 33°12' E 151°45'1012.1
2014-Sep-13 14:30S 33°04' E 151°53'1111.9
2014-Sep-13 13:33S 32°55' E 152°02'1313.1
2014-Sep-13 12:33S 32°50' E 152°16'1413.9
2014-Sep-13 11:33S 32°41' E 152°29'1514.5
2014-Sep-13 10:33S 32°32' E 152°42'28615.1
2014-Sep-12 15:33S 27°55' E 154°04'1515.0
2014-Sep-12 14:34S 27°40' E 154°04'1814.8
2014-Sep-12 13:19S 27°21' E 154°04'1515.3
2014-Sep-12 12:20S 27°06' E 154°04'1215.1
2014-Sep-12 11:34S 26°54' E 154°04'1514.9
2014-Sep-12 10:33S 26°40' E 154°04'1615.0
2014-Sep-12 09:30S 26°24' E 154°04'1414.9
2014-Sep-12 08:33S 26°10' E 154°04'1614.7
2014-Sep-12 07:26S 25°53' E 154°04'1414.3
2014-Sep-12 06:29S 25°40' E 154°04'  
Track history (hours):
 
Tides and Currents Weather Stations Pressure Air Temp Water Temp Dewpoint Dewpoint Depression Visibility Wind Speed Wind Dir Waves Ship Positions

Cape Sakura

Last reported at 2014-Sep-17 15:13 UTC. Time now 2014-Sep-30 10:21 UTC.
Position S 26°51' E 154°04'.
Warning: this ship's position is 12 days out of date.

Length 292 m; draft 15.3 m.

Type: Cargo ship. MMSI: 432786000.

Date/timePositionNaut miles runAvg speedWind from/ knotsBaromVisibWave heightAir tempDewpointWater temp
2014-Sep-17 15:13S 26°51' E 154°04'812.1
2014-Sep-17 14:33S 26°59' E 154°04'1212.2
2014-Sep-17 13:33S 27°11' E 154°03'1211.8
2014-Sep-17 12:33S 27°23' E 154°03'1111.4
2014-Sep-17 11:33S 27°34' E 154°04'1110.9
2014-Sep-17 10:33S 27°45' E 154°04'1010.2
2014-Sep-17 09:33S 27°55' E 154°04'1010.0
2014-Sep-17 08:33S 28°05' E 154°04'10 9.8
2014-Sep-17 07:33S 28°15' E 154°04'25811.7
2014-Sep-16 09:33S 32°24' E 152°47'1111.1
2014-Sep-16 08:33S 32°34' E 152°40'1111.0
2014-Sep-16 07:33S 32°40' E 152°30'1110.7
2014-Sep-16 06:33S 32°47' E 152°19'1110.8
2014-Sep-16 05:33S 32°52' E 152°08'1111.3
2014-Sep-16 04:33S 32°56' E 151°56'7 7.0
2014-Sep-16 03:33S 32°55' E 151°47'3 3.0
2014-Sep-16 02:33S 32°53' E 151°45'0 0.0
2014-Sep-16 01:28S 32°53' E 151°45'0 0.0
2014-Sep-16 00:31S 32°53' E 151°45'0 0.0
2014-Sep-15 23:28S 32°53' E 151°45'0 0.0
2014-Sep-15 22:22S 32°53' E 151°45'0 0.0
2014-Sep-15 21:22S 32°53' E 151°45'0 0.0
2014-Sep-15 20:22S 32°53' E 151°45'0 0.0
2014-Sep-15 19:31S 32°53' E 151°45'0 0.0
2014-Sep-15 18:31S 32°53' E 151°45'0 0.0
2014-Sep-15 17:28S 32°53' E 151°45'0 0.0
2014-Sep-15 16:31S 32°53' E 151°45'0 0.0
2014-Sep-15 15:31S 32°53' E 151°45'0 0.0
2014-Sep-15 14:31S 32°53' E 151°45'0 0.0
2014-Sep-15 13:16S 32°53' E 151°45'0 0.0
2014-Sep-15 12:31S 32°53' E 151°45'0 0.0
2014-Sep-15 11:31S 32°53' E 151°45'0 0.0
2014-Sep-15 10:28S 32°53' E 151°45'0 0.0
2014-Sep-15 09:31S 32°53' E 151°45'0 0.0
2014-Sep-15 08:31S 32°53' E 151°45'0 0.0
2014-Sep-15 07:28S 32°53' E 151°45'0 0.0
2014-Sep-15 06:28S 32°53' E 151°45'0 0.0
2014-Sep-15 05:28S 32°53' E 151°45'0 0.0
2014-Sep-15 04:31S 32°53' E 151°45'0 0.0
2014-Sep-15 03:28S 32°53' E 151°45'0 0.0
2014-Sep-15 02:25S 32°53' E 151°45'0 0.0
2014-Sep-15 01:31S 32°53' E 151°45'0 0.0
2014-Sep-15 00:31S 32°53' E 151°45'0 0.0
2014-Sep-14 23:28S 32°53' E 151°45'0 0.0
2014-Sep-14 22:31S 32°53' E 151°45'0 0.0
2014-Sep-14 21:28S 32°53' E 151°45'1 1.0
2014-Sep-14 20:33S 32°53' E 151°46'4 3.9
2014-Sep-14 19:33S 32°55' E 151°50'9 9.3
2014-Sep-14 18:33S 33°05' E 151°51'12 1.4
2014-Sep-14 09:30S 33°13' E 151°41'0 0.0
2014-Sep-14 07:33S 33°13' E 151°41'0 0.0
2014-Sep-14 06:33S 33°13' E 151°41'0 0.0
2014-Sep-14 05:30S 33°13' E 151°41'4 0.3
2014-Sep-13 15:21S 33°12' E 151°45'1012.1
2014-Sep-13 14:30S 33°04' E 151°53'1111.9
2014-Sep-13 13:33S 32°55' E 152°02'1313.1
2014-Sep-13 12:33S 32°50' E 152°16'1413.9
2014-Sep-13 11:33S 32°41' E 152°29'1514.5
2014-Sep-13 10:33S 32°32' E 152°42'28615.1
2014-Sep-12 15:33S 27°55' E 154°04'1515.0
2014-Sep-12 14:34S 27°40' E 154°04'1814.8
2014-Sep-12 13:19S 27°21' E 154°04'1515.3
2014-Sep-12 12:20S 27°06' E 154°04'1215.1
2014-Sep-12 11:34S 26°54' E 154°04'1514.9
2014-Sep-12 10:33S 26°40' E 154°04'1615.0
2014-Sep-12 09:30S 26°24' E 154°04'1414.9
2014-Sep-12 08:33S 26°10' E 154°04'1614.7
2014-Sep-12 07:26S 25°53' E 154°04'1414.3
2014-Sep-12 06:29S 25°40' E 154°04'  

Dump ship's entire track history